sensor_id;sensor_type;location;lat;lon;timestamp;P1;durP1;ratioP1;P2;durP2;ratioP2
52386;SDS011;38317;53.084;6.960;2022-10-26T00:01:27;7.32;;;4.88;;
52386;SDS011;38317;53.084;6.960;2022-10-26T00:03:54;6.97;;;4.43;;
52386;SDS011;38317;53.084;6.960;2022-10-26T00:06:22;8.25;;;4.50;;
52386;SDS011;38317;53.084;6.960;2022-10-26T00:08:49;7.70;;;4.57;;
52386;SDS011;38317;53.084;6.960;2022-10-26T00:11:16;8.52;;;4.45;;
52386;SDS011;38317;53.084;6.960;2022-10-26T00:13:43;9.35;;;4.75;;
52386;SDS011;38317;53.084;6.960;2022-10-26T00:16:11;6.55;;;4.10;;
52386;SDS011;38317;53.084;6.960;2022-10-26T00:18:39;8.20;;;4.78;;
52386;SDS011;38317;53.084;6.960;2022-10-26T00:21:06;7.78;;;4.82;;
52386;SDS011;38317;53.084;6.960;2022-10-26T00:23:33;7.25;;;4.25;;
52386;SDS011;38317;53.084;6.960;2022-10-26T00:25:59;7.47;;;4.18;;
52386;SDS011;38317;53.084;6.960;2022-10-26T00:28:25;9.52;;;5.45;;
52386;SDS011;38317;53.084;6.960;2022-10-26T00:30:50;8.80;;;4.60;;
52386;SDS011;38317;53.084;6.960;2022-10-26T00:33:16;8.55;;;4.75;;
52386;SDS011;38317;53.084;6.960;2022-10-26T00:35:42;7.07;;;4.38;;
52386;SDS011;38317;53.084;6.960;2022-10-26T00:38:11;9.02;;;4.53;;
52386;SDS011;38317;53.084;6.960;2022-10-26T00:40:36;8.45;;;4.60;;
52386;SDS011;38317;53.084;6.960;2022-10-26T00:43:02;9.13;;;4.93;;
52386;SDS011;38317;53.084;6.960;2022-10-26T00:45:28;7.45;;;4.30;;
52386;SDS011;38317;53.084;6.960;2022-10-26T00:48:01;8.60;;;4.65;;
52386;SDS011;38317;53.084;6.960;2022-10-26T00:50:35;8.98;;;5.30;;
52386;SDS011;38317;53.084;6.960;2022-10-26T00:53:06;9.10;;;4.72;;
52386;SDS011;38317;53.084;6.960;2022-10-26T00:55:36;8.18;;;4.55;;
52386;SDS011;38317;53.084;6.960;2022-10-26T00:58:06;9.57;;;4.88;;
52386;SDS011;38317;53.084;6.960;2022-10-26T01:00:34;8.70;;;4.50;;
52386;SDS011;38317;53.084;6.960;2022-10-26T01:03:01;8.88;;;4.80;;
52386;SDS011;38317;53.084;6.960;2022-10-26T01:05:30;8.38;;;4.93;;
52386;SDS011;38317;53.084;6.960;2022-10-26T01:07:58;8.85;;;5.53;;
52386;SDS011;38317;53.084;6.960;2022-10-26T01:10:24;12.30;;;5.55;;
52386;SDS011;38317;53.084;6.960;2022-10-26T01:12:51;10.98;;;4.78;;
52386;SDS011;38317;53.084;6.960;2022-10-26T01:15:19;8.27;;;4.60;;
52386;SDS011;38317;53.084;6.960;2022-10-26T01:17:56;7.03;;;4.10;;
52386;SDS011;38317;53.084;6.960;2022-10-26T01:20:48;10.02;;;4.85;;
52386;SDS011;38317;53.084;6.960;2022-10-26T01:26:21;10.10;;;4.45;;
52386;SDS011;38317;53.084;6.960;2022-10-26T01:32:05;9.13;;;4.75;;
52386;SDS011;38317;53.084;6.960;2022-10-26T01:34:38;9.82;;;4.60;;
52386;SDS011;38317;53.084;6.960;2022-10-26T01:37:19;8.32;;;4.68;;
52386;SDS011;38317;53.084;6.960;2022-10-26T01:39:52;7.38;;;4.68;;
52386;SDS011;38317;53.084;6.960;2022-10-26T01:42:22;6.68;;;4.18;;
52386;SDS011;38317;53.084;6.960;2022-10-26T01:44:55;7.75;;;4.32;;
52386;SDS011;38317;53.084;6.960;2022-10-26T01:47:28;7.82;;;4.38;;
52386;SDS011;38317;53.084;6.960;2022-10-26T01:49:57;8.32;;;4.40;;
52386;SDS011;38317;53.084;6.960;2022-10-26T01:52:26;9.55;;;4.93;;
52386;SDS011;38317;53.084;6.960;2022-10-26T01:54:59;9.57;;;5.28;;
52386;SDS011;38317;53.084;6.960;2022-10-26T01:57:25;10.38;;;4.57;;
52386;SDS011;38317;53.084;6.960;2022-10-26T01:59:55;8.25;;;5.03;;
52386;SDS011;38317;53.084;6.960;2022-10-26T02:02:40;9.57;;;5.30;;
52386;SDS011;38317;53.084;6.960;2022-10-26T02:07:45;9.23;;;5.18;;
52386;SDS011;38317;53.084;6.960;2022-10-26T02:15:52;9.13;;;4.25;;
52386;SDS011;38317;53.084;6.960;2022-10-26T02:18:23;10.20;;;5.63;;
52386;SDS011;38317;53.084;6.960;2022-10-26T02:21:02;9.38;;;5.22;;
52386;SDS011;38317;53.084;6.960;2022-10-26T02:23:33;11.77;;;5.60;;
52386;SDS011;38317;53.084;6.960;2022-10-26T02:26:01;11.95;;;5.90;;
52386;SDS011;38317;53.084;6.960;2022-10-26T02:28:34;9.80;;;5.53;;
52386;SDS011;38317;53.084;6.960;2022-10-26T02:31:03;8.52;;;4.97;;
52386;SDS011;38317;53.084;6.960;2022-10-26T02:33:32;8.75;;;4.93;;
52386;SDS011;38317;53.084;6.960;2022-10-26T02:36:02;9.23;;;5.22;;
52386;SDS011;38317;53.084;6.960;2022-10-26T02:38:31;8.18;;;4.95;;
52386;SDS011;38317;53.084;6.960;2022-10-26T02:40:58;9.07;;;5.55;;
52386;SDS011;38317;53.084;6.960;2022-10-26T02:43:26;8.85;;;5.18;;
52386;SDS011;38317;53.084;6.960;2022-10-26T02:46:03;9.15;;;5.28;;
52386;SDS011;38317;53.084;6.960;2022-10-26T02:48:32;8.80;;;5.75;;
52386;SDS011;38317;53.084;6.960;2022-10-26T02:50:59;9.30;;;5.55;;
52386;SDS011;38317;53.084;6.960;2022-10-26T02:56:07;8.30;;;5.40;;
52386;SDS011;38317;53.084;6.960;2022-10-26T02:58:57;9.52;;;5.07;;
52386;SDS011;38317;53.084;6.960;2022-10-26T03:01:26;8.82;;;5.50;;
52386;SDS011;38317;53.084;6.960;2022-10-26T03:03:56;9.82;;;5.25;;
52386;SDS011;38317;53.084;6.960;2022-10-26T03:06:23;9.65;;;5.45;;
52386;SDS011;38317;53.084;6.960;2022-10-26T03:08:49;11.50;;;6.03;;
52386;SDS011;38317;53.084;6.960;2022-10-26T03:11:16;9.75;;;6.05;;
52386;SDS011;38317;53.084;6.960;2022-10-26T03:13:42;10.00;;;6.25;;
52386;SDS011;38317;53.084;6.960;2022-10-26T03:16:08;10.82;;;5.85;;
52386;SDS011;38317;53.084;6.960;2022-10-26T03:18:34;9.93;;;5.80;;
52386;SDS011;38317;53.084;6.960;2022-10-26T03:21:00;10.23;;;5.85;;
52386;SDS011;38317;53.084;6.960;2022-10-26T03:23:26;13.32;;;6.13;;
52386;SDS011;38317;53.084;6.960;2022-10-26T03:25:55;9.85;;;5.78;;
52386;SDS011;38317;53.084;6.960;2022-10-26T03:28:21;9.57;;;5.45;;
52386;SDS011;38317;53.084;6.960;2022-10-26T03:30:47;9.82;;;5.78;;
52386;SDS011;38317;53.084;6.960;2022-10-26T03:33:13;9.48;;;5.68;;
52386;SDS011;38317;53.084;6.960;2022-10-26T03:35:39;12.20;;;5.70;;
52386;SDS011;38317;53.084;6.960;2022-10-26T03:38:04;10.07;;;5.70;;
52386;SDS011;38317;53.084;6.960;2022-10-26T03:40:30;9.15;;;5.65;;
52386;SDS011;38317;53.084;6.960;2022-10-26T03:42:56;10.15;;;5.90;;
52386;SDS011;38317;53.084;6.960;2022-10-26T03:45:21;10.18;;;5.95;;
52386;SDS011;38317;53.084;6.960;2022-10-26T03:47:47;11.80;;;5.82;;
52386;SDS011;38317;53.084;6.960;2022-10-26T03:50:15;9.57;;;6.07;;
52386;SDS011;38317;53.084;6.960;2022-10-26T03:52:42;10.10;;;5.65;;
52386;SDS011;38317;53.084;6.960;2022-10-26T03:55:09;10.27;;;5.88;;
52386;SDS011;38317;53.084;6.960;2022-10-26T03:57:44;9.55;;;5.85;;
52386;SDS011;38317;53.084;6.960;2022-10-26T04:00:11;10.38;;;5.75;;
52386;SDS011;38317;53.084;6.960;2022-10-26T04:02:45;11.48;;;6.25;;
52386;SDS011;38317;53.084;6.960;2022-10-26T04:05:17;9.13;;;5.40;;
52386;SDS011;38317;53.084;6.960;2022-10-26T04:07:43;11.30;;;5.82;;
52386;SDS011;38317;53.084;6.960;2022-10-26T04:10:09;10.98;;;5.93;;
52386;SDS011;38317;53.084;6.960;2022-10-26T04:12:36;11.00;;;5.78;;
52386;SDS011;38317;53.084;6.960;2022-10-26T04:15:02;11.25;;;6.10;;
52386;SDS011;38317;53.084;6.960;2022-10-26T04:17:31;11.60;;;6.28;;
52386;SDS011;38317;53.084;6.960;2022-10-26T04:19:56;9.65;;;5.75;;
52386;SDS011;38317;53.084;6.960;2022-10-26T04:22:22;12.05;;;6.38;;
52386;SDS011;38317;53.084;6.960;2022-10-26T04:24:48;10.57;;;6.15;;
52386;SDS011;38317;53.084;6.960;2022-10-26T04:27:14;11.23;;;6.68;;
52386;SDS011;38317;53.084;6.960;2022-10-26T04:29:39;9.65;;;6.07;;
52386;SDS011;38317;53.084;6.960;2022-10-26T04:32:05;12.80;;;7.03;;
52386;SDS011;38317;53.084;6.960;2022-10-26T04:34:31;9.57;;;5.70;;
52386;SDS011;38317;53.084;6.960;2022-10-26T04:36:57;12.15;;;6.45;;
52386;SDS011;38317;53.084;6.960;2022-10-26T04:39:23;10.70;;;6.78;;
52386;SDS011;38317;53.084;6.960;2022-10-26T04:41:49;11.32;;;7.45;;
52386;SDS011;38317;53.084;6.960;2022-10-26T04:44:15;11.52;;;6.57;;
52386;SDS011;38317;53.084;6.960;2022-10-26T04:46:41;13.07;;;6.78;;
52386;SDS011;38317;53.084;6.960;2022-10-26T04:49:07;10.13;;;6.45;;
52386;SDS011;38317;53.084;6.960;2022-10-26T04:51:32;12.35;;;7.50;;
52386;SDS011;38317;53.084;6.960;2022-10-26T04:53:58;12.15;;;6.65;;
52386;SDS011;38317;53.084;6.960;2022-10-26T04:56:24;10.50;;;6.53;;
52386;SDS011;38317;53.084;6.960;2022-10-26T04:58:52;11.25;;;7.10;;
52386;SDS011;38317;53.084;6.960;2022-10-26T05:01:18;11.48;;;6.80;;
52386;SDS011;38317;53.084;6.960;2022-10-26T05:03:47;10.15;;;6.70;;
52386;SDS011;38317;53.084;6.960;2022-10-26T05:06:14;9.95;;;6.45;;
52386;SDS011;38317;53.084;6.960;2022-10-26T05:08:40;11.55;;;7.20;;
52386;SDS011;38317;53.084;6.960;2022-10-26T05:11:05;13.05;;;7.38;;
52386;SDS011;38317;53.084;6.960;2022-10-26T05:13:31;11.23;;;7.50;;
52386;SDS011;38317;53.084;6.960;2022-10-26T05:15:57;11.73;;;6.80;;
52386;SDS011;38317;53.084;6.960;2022-10-26T05:18:23;11.40;;;7.20;;
52386;SDS011;38317;53.084;6.960;2022-10-26T05:20:51;11.52;;;7.15;;
52386;SDS011;38317;53.084;6.960;2022-10-26T05:23:17;12.32;;;7.10;;
52386;SDS011;38317;53.084;6.960;2022-10-26T05:25:43;11.80;;;6.90;;
52386;SDS011;38317;53.084;6.960;2022-10-26T05:28:10;12.23;;;6.90;;
52386;SDS011;38317;53.084;6.960;2022-10-26T05:30:40;10.50;;;6.82;;
52386;SDS011;38317;53.084;6.960;2022-10-26T05:33:07;9.90;;;6.28;;
52386;SDS011;38317;53.084;6.960;2022-10-26T05:35:35;10.23;;;6.53;;
52386;SDS011;38317;53.084;6.960;2022-10-26T05:38:22;12.77;;;6.70;;
52386;SDS011;38317;53.084;6.960;2022-10-26T05:40:48;14.85;;;7.03;;
52386;SDS011;38317;53.084;6.960;2022-10-26T05:43:14;12.23;;;7.32;;
52386;SDS011;38317;53.084;6.960;2022-10-26T05:45:40;12.15;;;6.68;;
52386;SDS011;38317;53.084;6.960;2022-10-26T05:48:06;11.50;;;6.55;;
52386;SDS011;38317;53.084;6.960;2022-10-26T05:50:32;12.05;;;6.70;;
52386;SDS011;38317;53.084;6.960;2022-10-26T05:52:57;11.88;;;6.88;;
52386;SDS011;38317;53.084;6.960;2022-10-26T05:55:23;11.05;;;6.75;;
52386;SDS011;38317;53.084;6.960;2022-10-26T05:57:49;11.75;;;6.45;;
52386;SDS011;38317;53.084;6.960;2022-10-26T06:00:22;10.38;;;6.10;;
52386;SDS011;38317;53.084;6.960;2022-10-26T06:05:53;12.32;;;6.80;;
52386;SDS011;38317;53.084;6.960;2022-10-26T06:08:19;11.57;;;7.18;;
52386;SDS011;38317;53.084;6.960;2022-10-26T06:10:47;13.10;;;7.15;;
52386;SDS011;38317;53.084;6.960;2022-10-26T06:13:13;13.98;;;6.75;;
52386;SDS011;38317;53.084;6.960;2022-10-26T06:15:45;11.95;;;6.63;;
52386;SDS011;38317;53.084;6.960;2022-10-26T06:21:22;12.55;;;7.32;;
52386;SDS011;38317;53.084;6.960;2022-10-26T06:24:40;11.85;;;6.70;;
52386;SDS011;38317;53.084;6.960;2022-10-26T06:29:49;11.73;;;6.13;;
52386;SDS011;38317;53.084;6.960;2022-10-26T06:32:21;10.70;;;6.25;;
52386;SDS011;38317;53.084;6.960;2022-10-26T06:34:49;11.32;;;6.35;;
52386;SDS011;38317;53.084;6.960;2022-10-26T06:37:17;11.27;;;5.95;;
52386;SDS011;38317;53.084;6.960;2022-10-26T06:39:45;10.63;;;6.28;;
52386;SDS011;38317;53.084;6.960;2022-10-26T06:42:11;11.65;;;6.13;;
52386;SDS011;38317;53.084;6.960;2022-10-26T06:44:38;10.95;;;6.05;;
52386;SDS011;38317;53.084;6.960;2022-10-26T06:52:28;10.02;;;5.55;;
52386;SDS011;38317;53.084;6.960;2022-10-26T06:55:01;10.18;;;5.65;;
52386;SDS011;38317;53.084;6.960;2022-10-26T06:57:33;11.65;;;5.68;;
52386;SDS011;38317;53.084;6.960;2022-10-26T07:02:30;10.85;;;5.53;;
52386;SDS011;38317;53.084;6.960;2022-10-26T07:04:56;8.43;;;4.82;;
52386;SDS011;38317;53.084;6.960;2022-10-26T07:07:23;9.25;;;5.28;;
52386;SDS011;38317;53.084;6.960;2022-10-26T07:09:50;9.95;;;5.38;;
52386;SDS011;38317;53.084;6.960;2022-10-26T07:12:16;8.18;;;4.97;;
52386;SDS011;38317;53.084;6.960;2022-10-26T07:14:41;10.27;;;4.80;;
52386;SDS011;38317;53.084;6.960;2022-10-26T07:17:07;10.00;;;4.75;;
52386;SDS011;38317;53.084;6.960;2022-10-26T07:19:34;8.50;;;4.60;;
52386;SDS011;38317;53.084;6.960;2022-10-26T07:22:00;7.45;;;4.65;;
52386;SDS011;38317;53.084;6.960;2022-10-26T07:24:29;8.48;;;5.15;;
52386;SDS011;38317;53.084;6.960;2022-10-26T07:26:56;10.68;;;4.80;;
52386;SDS011;38317;53.084;6.960;2022-10-26T07:29:23;7.93;;;4.78;;
52386;SDS011;38317;53.084;6.960;2022-10-26T07:31:50;10.88;;;4.45;;
52386;SDS011;38317;53.084;6.960;2022-10-26T07:34:17;8.93;;;4.25;;
52386;SDS011;38317;53.084;6.960;2022-10-26T07:36:43;9.27;;;4.00;;
52386;SDS011;38317;53.084;6.960;2022-10-26T07:39:09;8.38;;;4.55;;
52386;SDS011;38317;53.084;6.960;2022-10-26T07:41:51;8.90;;;4.18;;
52386;SDS011;38317;53.084;6.960;2022-10-26T07:44:17;7.88;;;3.88;;
52386;SDS011;38317;53.084;6.960;2022-10-26T07:46:43;7.68;;;4.47;;
52386;SDS011;38317;53.084;6.960;2022-10-26T07:49:09;9.63;;;4.60;;
52386;SDS011;38317;53.084;6.960;2022-10-26T07:51:35;7.78;;;3.92;;
52386;SDS011;38317;53.084;6.960;2022-10-26T07:54:01;6.80;;;3.92;;
52386;SDS011;38317;53.084;6.960;2022-10-26T07:56:27;7.50;;;4.07;;
52386;SDS011;38317;53.084;6.960;2022-10-26T07:58:54;7.55;;;3.90;;
52386;SDS011;38317;53.084;6.960;2022-10-26T08:01:20;7.68;;;4.28;;
52386;SDS011;38317;53.084;6.960;2022-10-26T08:03:46;7.13;;;3.90;;
52386;SDS011;38317;53.084;6.960;2022-10-26T08:06:12;7.93;;;4.70;;
52386;SDS011;38317;53.084;6.960;2022-10-26T08:08:37;9.10;;;4.40;;
52386;SDS011;38317;53.084;6.960;2022-10-26T08:11:04;7.75;;;3.80;;
52386;SDS011;38317;53.084;6.960;2022-10-26T08:13:30;10.05;;;4.60;;
52386;SDS011;38317;53.084;6.960;2022-10-26T08:15:57;7.55;;;3.95;;
52386;SDS011;38317;53.084;6.960;2022-10-26T08:18:23;7.50;;;3.85;;
52386;SDS011;38317;53.084;6.960;2022-10-26T08:20:49;6.80;;;3.38;;
52386;SDS011;38317;53.084;6.960;2022-10-26T08:23:15;8.02;;;3.83;;
52386;SDS011;38317;53.084;6.960;2022-10-26T08:25:40;9.98;;;3.40;;
52386;SDS011;38317;53.084;6.960;2022-10-26T08:28:06;8.23;;;3.88;;
52386;SDS011;38317;53.084;6.960;2022-10-26T08:30:32;7.10;;;3.40;;
52386;SDS011;38317;53.084;6.960;2022-10-26T08:33:02;5.32;;;3.13;;
52386;SDS011;38317;53.084;6.960;2022-10-26T08:35:30;6.88;;;3.22;;
52386;SDS011;38317;53.084;6.960;2022-10-26T08:37:56;7.40;;;3.35;;
52386;SDS011;38317;53.084;6.960;2022-10-26T08:40:32;5.07;;;2.80;;
52386;SDS011;38317;53.084;6.960;2022-10-26T08:48:22;6.65;;;2.72;;
52386;SDS011;38317;53.084;6.960;2022-10-26T08:50:58;5.93;;;2.95;;
52386;SDS011;38317;53.084;6.960;2022-10-26T08:53:51;5.78;;;2.70;;
52386;SDS011;38317;53.084;6.960;2022-10-26T08:56:27;4.90;;;2.50;;
52386;SDS011;38317;53.084;6.960;2022-10-26T08:59:00;5.35;;;2.75;;
52386;SDS011;38317;53.084;6.960;2022-10-26T09:01:33;5.20;;;2.85;;
52386;SDS011;38317;53.084;6.960;2022-10-26T09:04:00;6.47;;;2.70;;
52386;SDS011;38317;53.084;6.960;2022-10-26T09:09:06;7.30;;;3.00;;
52386;SDS011;38317;53.084;6.960;2022-10-26T09:15:02;9.15;;;3.58;;
52386;SDS011;38317;53.084;6.960;2022-10-26T09:17:41;5.03;;;2.55;;
52386;SDS011;38317;53.084;6.960;2022-10-26T09:26:02;6.13;;;2.55;;
52386;SDS011;38317;53.084;6.960;2022-10-26T09:28:36;5.45;;;2.53;;
52386;SDS011;38317;53.084;6.960;2022-10-26T09:31:04;8.18;;;2.75;;
52386;SDS011;38317;53.084;6.960;2022-10-26T09:33:33;6.03;;;2.60;;
52386;SDS011;38317;53.084;6.960;2022-10-26T09:36:02;12.10;;;2.22;;
52386;SDS011;38317;53.084;6.960;2022-10-26T09:38:49;21.17;;;2.75;;
52386;SDS011;38317;53.084;6.960;2022-10-26T09:41:45;5.45;;;2.33;;
52386;SDS011;38317;53.084;6.960;2022-10-26T09:46:50;7.10;;;2.58;;
52386;SDS011;38317;53.084;6.960;2022-10-26T09:49:22;5.75;;;2.03;;
52386;SDS011;38317;53.084;6.960;2022-10-26T09:51:55;6.15;;;2.60;;
52386;SDS011;38317;53.084;6.960;2022-10-26T09:54:21;5.82;;;2.00;;
52386;SDS011;38317;53.084;6.960;2022-10-26T09:56:48;5.80;;;2.03;;
52386;SDS011;38317;53.084;6.960;2022-10-26T09:59:19;2.90;;;2.00;;
52386;SDS011;38317;53.084;6.960;2022-10-26T10:01:47;5.78;;;2.03;;
52386;SDS011;38317;53.084;6.960;2022-10-26T10:06:42;7.43;;;2.10;;
52386;SDS011;38317;53.084;6.960;2022-10-26T10:09:10;5.45;;;1.98;;
52386;SDS011;38317;53.084;6.960;2022-10-26T10:11:48;3.80;;;1.73;;
52386;SDS011;38317;53.084;6.960;2022-10-26T10:14:20;4.07;;;1.55;;
52386;SDS011;38317;53.084;6.960;2022-10-26T10:16:54;4.28;;;1.60;;
52386;SDS011;38317;53.084;6.960;2022-10-26T10:19:23;2.55;;;1.50;;
52386;SDS011;38317;53.084;6.960;2022-10-26T10:21:51;6.93;;;1.50;;
52386;SDS011;38317;53.084;6.960;2022-10-26T10:24:30;3.25;;;1.30;;
52386;SDS011;38317;53.084;6.960;2022-10-26T10:26:58;4.38;;;1.55;;
52386;SDS011;38317;53.084;6.960;2022-10-26T10:29:29;2.22;;;1.20;;
52386;SDS011;38317;53.084;6.960;2022-10-26T10:31:58;5.35;;;1.75;;
52386;SDS011;38317;53.084;6.960;2022-10-26T10:34:26;2.42;;;1.17;;
52386;SDS011;38317;53.084;6.960;2022-10-26T10:36:54;4.82;;;2.08;;
52386;SDS011;38317;53.084;6.960;2022-10-26T10:39:26;4.45;;;1.45;;
52386;SDS011;38317;53.084;6.960;2022-10-26T10:42:04;3.97;;;1.20;;
52386;SDS011;38317;53.084;6.960;2022-10-26T10:44:37;2.90;;;1.17;;
52386;SDS011;38317;53.084;6.960;2022-10-26T10:47:04;3.83;;;1.23;;
52386;SDS011;38317;53.084;6.960;2022-10-26T10:49:31;4.57;;;1.63;;
52386;SDS011;38317;53.084;6.960;2022-10-26T10:51:58;4.82;;;1.25;;
52386;SDS011;38317;53.084;6.960;2022-10-26T11:05:19;3.72;;;1.13;;
52386;SDS011;38317;53.084;6.960;2022-10-26T11:07:52;2.50;;;1.00;;
52386;SDS011;38317;53.084;6.960;2022-10-26T11:10:35;2.97;;;0.98;;
52386;SDS011;38317;53.084;6.960;2022-10-26T11:16:04;6.55;;;1.10;;
52386;SDS011;38317;53.084;6.960;2022-10-26T11:19:12;3.80;;;1.15;;
52386;SDS011;38317;53.084;6.960;2022-10-26T11:21:40;2.97;;;1.02;;
52386;SDS011;38317;53.084;6.960;2022-10-26T11:24:15;2.75;;;1.13;;
52386;SDS011;38317;53.084;6.960;2022-10-26T11:32:26;4.18;;;1.55;;
52386;SDS011;38317;53.084;6.960;2022-10-26T11:37:59;4.78;;;1.30;;
52386;SDS011;38317;53.084;6.960;2022-10-26T11:46:05;3.75;;;1.25;;
52386;SDS011;38317;53.084;6.960;2022-10-26T11:49:09;3.75;;;1.10;;
52386;SDS011;38317;53.084;6.960;2022-10-26T11:52:17;3.28;;;1.10;;
52386;SDS011;38317;53.084;6.960;2022-10-26T11:54:53;14.15;;;3.15;;
52386;SDS011;38317;53.084;6.960;2022-10-26T11:57:26;3.78;;;1.40;;
52386;SDS011;38317;53.084;6.960;2022-10-26T11:59:58;4.43;;;1.30;;
52386;SDS011;38317;53.084;6.960;2022-10-26T12:02:30;3.40;;;1.20;;
52386;SDS011;38317;53.084;6.960;2022-10-26T12:05:07;4.95;;;1.20;;
52386;SDS011;38317;53.084;6.960;2022-10-26T12:07:36;2.13;;;1.00;;
52386;SDS011;38317;53.084;6.960;2022-10-26T12:10:05;6.75;;;1.50;;
52386;SDS011;38317;53.084;6.960;2022-10-26T12:12:43;4.95;;;1.20;;
52386;SDS011;38317;53.084;6.960;2022-10-26T12:15:23;10.13;;;1.58;;
52386;SDS011;38317;53.084;6.960;2022-10-26T12:17:53;3.58;;;1.10;;
52386;SDS011;38317;53.084;6.960;2022-10-26T12:23:03;3.05;;;1.15;;
52386;SDS011;38317;53.084;6.960;2022-10-26T12:25:32;3.13;;;1.00;;
52386;SDS011;38317;53.084;6.960;2022-10-26T12:27:57;2.72;;;0.95;;
52386;SDS011;38317;53.084;6.960;2022-10-26T12:30:28;3.33;;;0.95;;
52386;SDS011;38317;53.084;6.960;2022-10-26T12:35:32;2.58;;;0.93;;
52386;SDS011;38317;53.084;6.960;2022-10-26T12:41:27;3.85;;;0.93;;
52386;SDS011;38317;53.084;6.960;2022-10-26T12:43:56;3.95;;;1.17;;
52386;SDS011;38317;53.084;6.960;2022-10-26T12:48:52;4.60;;;1.40;;
52386;SDS011;38317;53.084;6.960;2022-10-26T12:59:36;2.78;;;1.20;;
52386;SDS011;38317;53.084;6.960;2022-10-26T13:05:11;3.42;;;0.90;;
52386;SDS011;38317;53.084;6.960;2022-10-26T13:07:57;2.95;;;1.00;;
52386;SDS011;38317;53.084;6.960;2022-10-26T13:10:26;4.75;;;1.30;;
52386;SDS011;38317;53.084;6.960;2022-10-26T13:12:53;7.55;;;1.38;;
52386;SDS011;38317;53.084;6.960;2022-10-26T13:15:26;9.90;;;1.50;;
52386;SDS011;38317;53.084;6.960;2022-10-26T13:20:25;2.80;;;1.10;;
52386;SDS011;38317;53.084;6.960;2022-10-26T13:22:51;7.30;;;1.50;;
52386;SDS011;38317;53.084;6.960;2022-10-26T13:25:27;3.47;;;1.30;;
52386;SDS011;38317;53.084;6.960;2022-10-26T13:28:02;6.18;;;1.40;;
52386;SDS011;38317;53.084;6.960;2022-10-26T13:30:51;4.88;;;1.17;;
52386;SDS011;38317;53.084;6.960;2022-10-26T13:33:21;3.90;;;1.50;;
52386;SDS011;38317;53.084;6.960;2022-10-26T13:35:50;4.35;;;1.30;;
52386;SDS011;38317;53.084;6.960;2022-10-26T13:38:19;6.45;;;1.40;;
52386;SDS011;38317;53.084;6.960;2022-10-26T13:40:47;6.85;;;1.75;;
52386;SDS011;38317;53.084;6.960;2022-10-26T13:43:23;4.53;;;1.10;;
52386;SDS011;38317;53.084;6.960;2022-10-26T13:45:54;4.78;;;1.40;;
52386;SDS011;38317;53.084;6.960;2022-10-26T13:48:26;3.55;;;1.27;;
52386;SDS011;38317;53.084;6.960;2022-10-26T13:51:32;4.03;;;1.30;;
52386;SDS011;38317;53.084;6.960;2022-10-26T13:53:56;3.97;;;1.20;;
52386;SDS011;38317;53.084;6.960;2022-10-26T13:56:32;4.38;;;1.17;;
52386;SDS011;38317;53.084;6.960;2022-10-26T13:59:02;3.35;;;1.30;;
52386;SDS011;38317;53.084;6.960;2022-10-26T14:01:33;4.72;;;1.42;;
52386;SDS011;38317;53.084;6.960;2022-10-26T14:03:59;4.15;;;1.50;;
52386;SDS011;38317;53.084;6.960;2022-10-26T14:09:12;3.65;;;1.20;;
52386;SDS011;38317;53.084;6.960;2022-10-26T14:16:59;3.58;;;1.48;;
52386;SDS011;38317;53.084;6.960;2022-10-26T14:19:29;3.03;;;1.17;;
52386;SDS011;38317;53.084;6.960;2022-10-26T14:22:00;7.05;;;2.30;;
52386;SDS011;38317;53.084;6.960;2022-10-26T14:24:27;2.75;;;1.15;;
52386;SDS011;38317;53.084;6.960;2022-10-26T14:26:55;3.97;;;1.70;;
52386;SDS011;38317;53.084;6.960;2022-10-26T14:29:21;4.28;;;1.40;;
52386;SDS011;38317;53.084;6.960;2022-10-26T14:31:49;5.03;;;1.50;;
52386;SDS011;38317;53.084;6.960;2022-10-26T14:34:15;3.35;;;1.67;;
52386;SDS011;38317;53.084;6.960;2022-10-26T14:36:52;4.60;;;1.38;;
52386;SDS011;38317;53.084;6.960;2022-10-26T14:39:30;4.32;;;1.60;;
52386;SDS011;38317;53.084;6.960;2022-10-26T14:42:13;3.28;;;1.30;;
52386;SDS011;38317;53.084;6.960;2022-10-26T14:44:41;5.05;;;1.50;;
52386;SDS011;38317;53.084;6.960;2022-10-26T14:47:14;4.15;;;1.40;;
52386;SDS011;38317;53.084;6.960;2022-10-26T14:49:47;5.80;;;2.17;;
52386;SDS011;38317;53.084;6.960;2022-10-26T14:52:15;5.45;;;1.65;;
52386;SDS011;38317;53.084;6.960;2022-10-26T14:57:39;4.78;;;1.58;;
52386;SDS011;38317;53.084;6.960;2022-10-26T15:00:15;4.07;;;1.48;;
52386;SDS011;38317;53.084;6.960;2022-10-26T15:02:43;4.45;;;1.20;;
52386;SDS011;38317;53.084;6.960;2022-10-26T15:05:18;5.38;;;1.70;;
52386;SDS011;38317;53.084;6.960;2022-10-26T15:07:56;2.58;;;1.33;;
52386;SDS011;38317;53.084;6.960;2022-10-26T15:15:56;5.78;;;1.90;;
52386;SDS011;38317;53.084;6.960;2022-10-26T15:18:32;4.40;;;1.90;;
52386;SDS011;38317;53.084;6.960;2022-10-26T15:21:00;5.68;;;1.85;;
52386;SDS011;38317;53.084;6.960;2022-10-26T15:23:27;4.57;;;1.90;;
52386;SDS011;38317;53.084;6.960;2022-10-26T15:26:01;3.78;;;1.60;;
52386;SDS011;38317;53.084;6.960;2022-10-26T15:28:28;3.08;;;1.60;;
52386;SDS011;38317;53.084;6.960;2022-10-26T15:33:29;4.57;;;1.80;;
52386;SDS011;38317;53.084;6.960;2022-10-26T15:38:42;4.60;;;1.50;;
52386;SDS011;38317;53.084;6.960;2022-10-26T15:41:13;2.67;;;1.45;;
52386;SDS011;38317;53.084;6.960;2022-10-26T15:43:49;7.05;;;1.80;;
52386;SDS011;38317;53.084;6.960;2022-10-26T15:46:18;4.85;;;1.38;;
52386;SDS011;38317;53.084;6.960;2022-10-26T15:48:48;2.92;;;1.52;;
52386;SDS011;38317;53.084;6.960;2022-10-26T15:51:19;4.80;;;1.75;;
52386;SDS011;38317;53.084;6.960;2022-10-26T15:53:45;3.78;;;1.60;;
52386;SDS011;38317;53.084;6.960;2022-10-26T15:56:14;6.82;;;2.30;;
52386;SDS011;38317;53.084;6.960;2022-10-26T15:58:42;3.78;;;2.00;;
52386;SDS011;38317;53.084;6.960;2022-10-26T16:01:11;8.60;;;2.38;;
52386;SDS011;38317;53.084;6.960;2022-10-26T16:03:48;7.75;;;3.10;;
52386;SDS011;38317;53.084;6.960;2022-10-26T16:06:28;7.65;;;3.40;;
52386;SDS011;38317;53.084;6.960;2022-10-26T16:08:56;6.05;;;2.47;;
52386;SDS011;38317;53.084;6.960;2022-10-26T16:11:23;6.93;;;2.60;;
52386;SDS011;38317;53.084;6.960;2022-10-26T16:13:49;5.72;;;2.58;;
52386;SDS011;38317;53.084;6.960;2022-10-26T16:16:15;6.90;;;2.88;;
52386;SDS011;38317;53.084;6.960;2022-10-26T16:18:43;4.40;;;1.90;;
52386;SDS011;38317;53.084;6.960;2022-10-26T16:21:11;3.92;;;2.10;;
52386;SDS011;38317;53.084;6.960;2022-10-26T16:23:37;5.60;;;2.10;;
52386;SDS011;38317;53.084;6.960;2022-10-26T16:26:04;3.70;;;1.50;;
52386;SDS011;38317;53.084;6.960;2022-10-26T16:28:30;4.13;;;1.80;;
52386;SDS011;38317;53.084;6.960;2022-10-26T16:31:00;4.65;;;1.85;;
52386;SDS011;38317;53.084;6.960;2022-10-26T16:33:30;5.07;;;1.90;;
52386;SDS011;38317;53.084;6.960;2022-10-26T16:35:56;6.15;;;2.15;;
52386;SDS011;38317;53.084;6.960;2022-10-26T16:38:23;4.05;;;1.92;;
52386;SDS011;38317;53.084;6.960;2022-10-26T16:40:59;4.97;;;2.00;;
52386;SDS011;38317;53.084;6.960;2022-10-26T16:43:26;3.80;;;1.95;;
52386;SDS011;38317;53.084;6.960;2022-10-26T16:45:52;5.72;;;1.98;;
52386;SDS011;38317;53.084;6.960;2022-10-26T16:48:17;4.53;;;2.20;;
52386;SDS011;38317;53.084;6.960;2022-10-26T16:50:43;4.65;;;2.30;;
52386;SDS011;38317;53.084;6.960;2022-10-26T16:53:09;4.22;;;2.00;;
52386;SDS011;38317;53.084;6.960;2022-10-26T16:55:34;5.97;;;1.95;;
52386;SDS011;38317;53.084;6.960;2022-10-26T16:58:00;4.30;;;2.10;;
52386;SDS011;38317;53.084;6.960;2022-10-26T17:00:26;4.85;;;2.50;;
52386;SDS011;38317;53.084;6.960;2022-10-26T17:02:52;5.25;;;2.20;;
52386;SDS011;38317;53.084;6.960;2022-10-26T17:05:17;5.55;;;2.53;;
52386;SDS011;38317;53.084;6.960;2022-10-26T17:07:45;4.75;;;1.95;;
52386;SDS011;38317;53.084;6.960;2022-10-26T17:10:11;4.95;;;1.92;;
52386;SDS011;38317;53.084;6.960;2022-10-26T17:12:37;4.40;;;2.00;;